sensor_id;sensor_type;location;lat;lon;timestamp;temperature;humidity
65707;SHT31;52423;43.512;5.220;2023-03-23T00:02:27;10.29;74.65
65707;SHT31;52423;43.512;5.220;2023-03-23T00:04:53;10.22;74.83
65707;SHT31;52423;43.512;5.220;2023-03-23T00:07:22;10.22;74.69
65707;SHT31;52423;43.512;5.220;2023-03-23T00:09:53;10.22;74.63
65707;SHT31;52423;43.512;5.220;2023-03-23T00:12:24;10.24;74.90
65707;SHT31;52423;43.512;5.220;2023-03-23T00:15:01;10.23;74.64
65707;SHT31;52423;43.512;5.220;2023-03-23T00:17:28;10.26;74.76
65707;SHT31;52423;43.512;5.220;2023-03-23T00:19:53;10.26;75.03
65707;SHT31;52423;43.512;5.220;2023-03-23T00:22:19;10.32;75.09
65707;SHT31;52423;43.512;5.220;2023-03-23T00:24:46;10.43;75.38
65707;SHT31;52423;43.512;5.220;2023-03-23T00:27:12;10.46;75.18
65707;SHT31;52423;43.512;5.220;2023-03-23T00:29:40;10.42;75.20
65707;SHT31;52423;43.512;5.220;2023-03-23T00:32:07;10.57;75.64
65707;SHT31;52423;43.512;5.220;2023-03-23T00:34:38;10.67;75.49
65707;SHT31;52423;43.512;5.220;2023-03-23T00:37:06;10.57;75.46
65707;SHT31;52423;43.512;5.220;2023-03-23T00:39:31;10.61;75.75
65707;SHT31;52423;43.512;5.220;2023-03-23T00:41:56;10.64;75.61
65707;SHT31;52423;43.512;5.220;2023-03-23T00:44:30;10.60;76.06
65707;SHT31;52423;43.512;5.220;2023-03-23T00:46:57;10.68;75.80
65707;SHT31;52423;43.512;5.220;2023-03-23T00:49:24;10.71;75.84
65707;SHT31;52423;43.512;5.220;2023-03-23T00:51:51;10.77;76.33
65707;SHT31;52423;43.512;5.220;2023-03-23T00:54:17;10.81;76.59
65707;SHT31;52423;43.512;5.220;2023-03-23T00:56:43;10.78;76.50
65707;SHT31;52423;43.512;5.220;2023-03-23T00:59:08;10.95;76.32
65707;SHT31;52423;43.512;5.220;2023-03-23T01:01:34;11.05;75.14
65707;SHT31;52423;43.512;5.220;2023-03-23T01:04:01;10.84;75.18
65707;SHT31;52423;43.512;5.220;2023-03-23T01:06:36;10.77;75.16
65707;SHT31;52423;43.512;5.220;2023-03-23T01:09:18;10.82;75.28
65707;SHT31;52423;43.512;5.220;2023-03-23T01:11:47;10.82;75.21
65707;SHT31;52423;43.512;5.220;2023-03-23T01:14:14;10.78;74.97
65707;SHT31;52423;43.512;5.220;2023-03-23T01:16:40;10.68;74.98
65707;SHT31;52423;43.512;5.220;2023-03-23T01:19:05;10.71;74.73
65707;SHT31;52423;43.512;5.220;2023-03-23T01:21:31;10.87;76.33
65707;SHT31;52423;43.512;5.220;2023-03-23T01:23:56;11.00;75.57
65707;SHT31;52423;43.512;5.220;2023-03-23T01:26:24;10.92;74.81
65707;SHT31;52423;43.512;5.220;2023-03-23T01:28:50;10.88;74.56
65707;SHT31;52423;43.512;5.220;2023-03-23T01:31:19;10.85;73.91
65707;SHT31;52423;43.512;5.220;2023-03-23T01:33:45;10.92;74.40
65707;SHT31;52423;43.512;5.220;2023-03-23T01:36:14;10.90;74.35
65707;SHT31;52423;43.512;5.220;2023-03-23T01:38:41;10.90;73.99
65707;SHT31;52423;43.512;5.220;2023-03-23T01:41:07;10.84;73.82
65707;SHT31;52423;43.512;5.220;2023-03-23T01:43:32;10.90;74.33
65707;SHT31;52423;43.512;5.220;2023-03-23T01:45:58;11.07;73.90
65707;SHT31;52423;43.512;5.220;2023-03-23T01:48:27;10.92;73.78
65707;SHT31;52423;43.512;5.220;2023-03-23T01:51:14;11.16;73.44
65707;SHT31;52423;43.512;5.220;2023-03-23T01:53:49;11.00;72.94
65707;SHT31;52423;43.512;5.220;2023-03-23T01:56:18;10.97;73.83
65707;SHT31;52423;43.512;5.220;2023-03-23T01:58:45;11.01;73.44
65707;SHT31;52423;43.512;5.220;2023-03-23T02:01:13;10.92;73.40
65707;SHT31;52423;43.512;5.220;2023-03-23T02:03:43;10.88;73.59
65707;SHT31;52423;43.512;5.220;2023-03-23T02:06:09;10.75;73.85
65707;SHT31;52423;43.512;5.220;2023-03-23T02:08:35;10.78;74.40
65707;SHT31;52423;43.512;5.220;2023-03-23T02:11:11;10.65;74.36
65707;SHT31;52423;43.512;5.220;2023-03-23T02:13:37;10.65;74.90
65707;SHT31;52423;43.512;5.220;2023-03-23T02:16:27;10.67;75.00
65707;SHT31;52423;43.512;5.220;2023-03-23T02:27:37;10.59;75.75
65707;SHT31;52423;43.512;5.220;2023-03-23T02:30:23;10.46;75.32
65707;SHT31;52423;43.512;5.220;2023-03-23T02:38:37;10.34;76.10
65707;SHT31;52423;43.512;5.220;2023-03-23T02:41:03;10.34;76.29
65707;SHT31;52423;43.512;5.220;2023-03-23T02:43:33;10.36;76.25
65707;SHT31;52423;43.512;5.220;2023-03-23T02:46:04;10.43;75.85
65707;SHT31;52423;43.512;5.220;2023-03-23T02:48:33;10.44;76.20
65707;SHT31;52423;43.512;5.220;2023-03-23T02:50:59;10.47;76.01
65707;SHT31;52423;43.512;5.220;2023-03-23T02:53:26;10.53;76.16
65707;SHT31;52423;43.512;5.220;2023-03-23T02:55:54;10.54;76.55
65707;SHT31;52423;43.512;5.220;2023-03-23T02:58:21;10.47;76.57
65707;SHT31;52423;43.512;5.220;2023-03-23T03:00:50;10.47;76.92
65707;SHT31;52423;43.512;5.220;2023-03-23T03:03:22;10.49;76.96
65707;SHT31;52423;43.512;5.220;2023-03-23T03:06:18;10.47;76.95
65707;SHT31;52423;43.512;5.220;2023-03-23T03:09:04;10.49;77.43
65707;SHT31;52423;43.512;5.220;2023-03-23T03:11:33;10.50;77.57
65707;SHT31;52423;43.512;5.220;2023-03-23T03:14:10;10.46;78.01
65707;SHT31;52423;43.512;5.220;2023-03-23T03:19:29;10.53;78.94
65707;SHT31;52423;43.512;5.220;2023-03-23T03:21:57;10.61;79.17
65707;SHT31;52423;43.512;5.220;2023-03-23T03:24:25;10.68;79.93
65707;SHT31;52423;43.512;5.220;2023-03-23T03:26:54;10.67;80.09
65707;SHT31;52423;43.512;5.220;2023-03-23T03:29:28;10.63;79.84
65707;SHT31;52423;43.512;5.220;2023-03-23T03:31:56;10.60;79.77
65707;SHT31;52423;43.512;5.220;2023-03-23T03:34:23;10.59;80.15
65707;SHT31;52423;43.512;5.220;2023-03-23T03:36:51;10.67;80.43
65707;SHT31;52423;43.512;5.220;2023-03-23T03:39:17;10.73;80.45
65707;SHT31;52423;43.512;5.220;2023-03-23T03:41:45;10.67;80.90
65707;SHT31;52423;43.512;5.220;2023-03-23T03:44:11;10.71;80.90
65707;SHT31;52423;43.512;5.220;2023-03-23T03:46:37;10.75;80.47
65707;SHT31;52423;43.512;5.220;2023-03-23T03:49:05;10.74;80.67
65707;SHT31;52423;43.512;5.220;2023-03-23T03:51:31;10.75;80.36
65707;SHT31;52423;43.512;5.220;2023-03-23T03:53:57;10.70;80.36
65707;SHT31;52423;43.512;5.220;2023-03-23T03:56:23;10.68;80.29
65707;SHT31;52423;43.512;5.220;2023-03-23T03:58:50;10.74;80.14
65707;SHT31;52423;43.512;5.220;2023-03-23T04:01:17;10.74;80.06
65707;SHT31;52423;43.512;5.220;2023-03-23T04:03:43;10.65;80.13
65707;SHT31;52423;43.512;5.220;2023-03-23T04:06:09;10.64;80.27
65707;SHT31;52423;43.512;5.220;2023-03-23T04:08:36;10.57;80.18
65707;SHT31;52423;43.512;5.220;2023-03-23T04:11:03;10.54;80.46
65707;SHT31;52423;43.512;5.220;2023-03-23T04:13:29;10.54;80.60
65707;SHT31;52423;43.512;5.220;2023-03-23T04:15:55;10.56;80.78
65707;SHT31;52423;43.512;5.220;2023-03-23T04:18:20;10.49;80.63
65707;SHT31;52423;43.512;5.220;2023-03-23T04:20:47;10.65;80.36
65707;SHT31;52423;43.512;5.220;2023-03-23T04:23:18;10.60;80.37
65707;SHT31;52423;43.512;5.220;2023-03-23T04:25:47;10.63;80.29
65707;SHT31;52423;43.512;5.220;2023-03-23T04:28:14;10.59;80.30
65707;SHT31;52423;43.512;5.220;2023-03-23T04:30:42;10.60;80.36
65707;SHT31;52423;43.512;5.220;2023-03-23T04:33:09;10.63;80.37
65707;SHT31;52423;43.512;5.220;2023-03-23T04:35:40;10.64;80.32
65707;SHT31;52423;43.512;5.220;2023-03-23T04:38:06;10.60;80.65
65707;SHT31;52423;43.512;5.220;2023-03-23T04:40:36;10.56;80.89
65707;SHT31;52423;43.512;5.220;2023-03-23T04:43:01;10.64;81.19
65707;SHT31;52423;43.512;5.220;2023-03-23T04:45:31;10.70;80.53
65707;SHT31;52423;43.512;5.220;2023-03-23T04:47:56;10.74;80.95
65707;SHT31;52423;43.512;5.220;2023-03-23T04:50:28;10.70;81.02
65707;SHT31;52423;43.512;5.220;2023-03-23T04:52:56;10.65;80.86
65707;SHT31;52423;43.512;5.220;2023-03-23T04:55:24;10.71;80.63
65707;SHT31;52423;43.512;5.220;2023-03-23T04:57:49;10.71;80.65
65707;SHT31;52423;43.512;5.220;2023-03-23T05:00:15;10.74;80.76
65707;SHT31;52423;43.512;5.220;2023-03-23T05:02:45;10.71;80.25
65707;SHT31;52423;43.512;5.220;2023-03-23T05:05:19;10.73;79.99
65707;SHT31;52423;43.512;5.220;2023-03-23T05:07:44;10.74;80.16
65707;SHT31;52423;43.512;5.220;2023-03-23T05:10:11;10.74;80.07
65707;SHT31;52423;43.512;5.220;2023-03-23T05:12:37;10.84;79.71
65707;SHT31;52423;43.512;5.220;2023-03-23T05:15:04;10.80;79.56
65707;SHT31;52423;43.512;5.220;2023-03-23T05:17:29;10.74;79.46
65707;SHT31;52423;43.512;5.220;2023-03-23T05:19:57;10.70;79.30
65707;SHT31;52423;43.512;5.220;2023-03-23T05:22:23;10.71;79.16
65707;SHT31;52423;43.512;5.220;2023-03-23T05:24:51;10.70;79.05
65707;SHT31;52423;43.512;5.220;2023-03-23T05:27:18;10.74;79.10
65707;SHT31;52423;43.512;5.220;2023-03-23T05:29:44;10.70;79.36
65707;SHT31;52423;43.512;5.220;2023-03-23T05:32:11;10.65;79.02
65707;SHT31;52423;43.512;5.220;2023-03-23T05:34:36;10.67;78.99
65707;SHT31;52423;43.512;5.220;2023-03-23T05:37:03;10.68;78.96
65707;SHT31;52423;43.512;5.220;2023-03-23T05:39:30;10.71;79.42
65707;SHT31;52423;43.512;5.220;2023-03-23T05:41:56;10.61;79.15
65707;SHT31;52423;43.512;5.220;2023-03-23T05:44:22;10.64;78.96
65707;SHT31;52423;43.512;5.220;2023-03-23T05:46:48;10.63;79.06
65707;SHT31;52423;43.512;5.220;2023-03-23T05:49:14;10.59;79.16
65707;SHT31;52423;43.512;5.220;2023-03-23T05:51:41;10.60;79.29
65707;SHT31;52423;43.512;5.220;2023-03-23T05:54:07;10.59;79.36
65707;SHT31;52423;43.512;5.220;2023-03-23T05:56:32;10.67;79.26
65707;SHT31;52423;43.512;5.220;2023-03-23T05:58:58;10.70;79.45
65707;SHT31;52423;43.512;5.220;2023-03-23T06:01:24;10.65;79.45
65707;SHT31;52423;43.512;5.220;2023-03-23T06:03:50;10.68;79.94
65707;SHT31;52423;43.512;5.220;2023-03-23T06:06:22;10.77;79.60
65707;SHT31;52423;43.512;5.220;2023-03-23T06:08:47;10.71;80.14
65707;SHT31;52423;43.512;5.220;2023-03-23T06:11:15;10.70;80.34
65707;SHT31;52423;43.512;5.220;2023-03-23T06:13:41;10.80;81.05
65707;SHT31;52423;43.512;5.220;2023-03-23T06:16:07;10.88;81.23
65707;SHT31;52423;43.512;5.220;2023-03-23T06:18:33;10.98;80.99
65707;SHT31;52423;43.512;5.220;2023-03-23T06:21:02;11.02;81.01
65707;SHT31;52423;43.512;5.220;2023-03-23T06:23:28;11.07;81.02
65707;SHT31;52423;43.512;5.220;2023-03-23T06:25:56;11.08;80.62
65707;SHT31;52423;43.512;5.220;2023-03-23T06:28:22;11.11;80.56
65707;SHT31;52423;43.512;5.220;2023-03-23T06:30:48;11.18;81.17
65707;SHT31;52423;43.512;5.220;2023-03-23T06:33:13;11.21;81.15
65707;SHT31;52423;43.512;5.220;2023-03-23T06:35:39;11.31;80.80
65707;SHT31;52423;43.512;5.220;2023-03-23T06:38:04;11.31;80.80
65707;SHT31;52423;43.512;5.220;2023-03-23T06:40:30;11.35;80.75
65707;SHT31;52423;43.512;5.220;2023-03-23T06:42:58;11.39;81.01
65707;SHT31;52423;43.512;5.220;2023-03-23T06:45:26;11.43;81.01
65707;SHT31;52423;43.512;5.220;2023-03-23T06:47:51;11.47;81.13
65707;SHT31;52423;43.512;5.220;2023-03-23T06:50:17;11.49;80.88
65707;SHT31;52423;43.512;5.220;2023-03-23T06:52:47;11.53;80.42
65707;SHT31;52423;43.512;5.220;2023-03-23T06:55:13;11.56;80.46
65707;SHT31;52423;43.512;5.220;2023-03-23T06:57:39;11.55;80.53
65707;SHT31;52423;43.512;5.220;2023-03-23T07:00:06;11.63;80.48
65707;SHT31;52423;43.512;5.220;2023-03-23T07:02:33;11.62;80.28
65707;SHT31;52423;43.512;5.220;2023-03-23T07:04:59;11.66;79.70
65707;SHT31;52423;43.512;5.220;2023-03-23T07:07:24;11.62;79.35
65707;SHT31;52423;43.512;5.220;2023-03-23T07:09:50;11.63;78.96
65707;SHT31;52423;43.512;5.220;2023-03-23T07:12:15;11.63;79.12
65707;SHT31;52423;43.512;5.220;2023-03-23T07:14:41;11.66;79.50
65707;SHT31;52423;43.512;5.220;2023-03-23T07:17:06;11.72;79.28
65707;SHT31;52423;43.512;5.220;2023-03-23T07:19:32;11.77;78.91
65707;SHT31;52423;43.512;5.220;2023-03-23T07:21:58;11.83;78.74
65707;SHT31;52423;43.512;5.220;2023-03-23T07:24:23;11.90;79.16
65707;SHT31;52423;43.512;5.220;2023-03-23T07:26:49;12.00;79.13
65707;SHT31;52423;43.512;5.220;2023-03-23T07:29:14;12.11;79.62
65707;SHT31;52423;43.512;5.220;2023-03-23T07:31:40;12.31;79.12
65707;SHT31;52423;43.512;5.220;2023-03-23T07:34:05;12.42;79.20
65707;SHT31;52423;43.512;5.220;2023-03-23T07:36:31;12.56;79.13
65707;SHT31;52423;43.512;5.220;2023-03-23T07:38:58;12.81;79.31
65707;SHT31;52423;43.512;5.220;2023-03-23T07:41:24;13.10;77.87
65707;SHT31;52423;43.512;5.220;2023-03-23T07:43:49;13.23;77.37
65707;SHT31;52423;43.512;5.220;2023-03-23T07:46:14;13.60;77.74
65707;SHT31;52423;43.512;5.220;2023-03-23T07:48:40;14.26;76.44
65707;SHT31;52423;43.512;5.220;2023-03-23T07:51:06;14.59;74.48
65707;SHT31;52423;43.512;5.220;2023-03-23T07:53:33;14.93;73.33
65707;SHT31;52423;43.512;5.220;2023-03-23T07:55:58;15.14;73.41
65707;SHT31;52423;43.512;5.220;2023-03-23T07:58:23;15.03;73.35
65707;SHT31;52423;43.512;5.220;2023-03-23T08:00:51;15.04;73.46
65707;SHT31;52423;43.512;5.220;2023-03-23T08:03:17;15.00;73.77
65707;SHT31;52423;43.512;5.220;2023-03-23T08:05:43;14.91;74.07
65707;SHT31;52423;43.512;5.220;2023-03-23T08:08:09;14.84;74.01
65707;SHT31;52423;43.512;5.220;2023-03-23T08:10:35;14.85;73.99
65707;SHT31;52423;43.512;5.220;2023-03-23T08:13:01;14.84;74.10
65707;SHT31;52423;43.512;5.220;2023-03-23T08:15:26;14.85;73.34
65707;SHT31;52423;43.512;5.220;2023-03-23T08:17:52;14.81;73.19
65707;SHT31;52423;43.512;5.220;2023-03-23T08:20:18;14.84;74.01
65707;SHT31;52423;43.512;5.220;2023-03-23T08:22:51;14.83;73.26
65707;SHT31;52423;43.512;5.220;2023-03-23T08:25:18;14.79;73.58
65707;SHT31;52423;43.512;5.220;2023-03-23T08:27:44;14.83;73.61
65707;SHT31;52423;43.512;5.220;2023-03-23T08:30:14;15.07;73.41
65707;SHT31;52423;43.512;5.220;2023-03-23T08:32:41;15.07;73.23
65707;SHT31;52423;43.512;5.220;2023-03-23T08:35:08;15.24;73.01
65707;SHT31;52423;43.512;5.220;2023-03-23T08:37:35;15.28;72.86
65707;SHT31;52423;43.512;5.220;2023-03-23T08:40:02;15.24;73.07
65707;SHT31;52423;43.512;5.220;2023-03-23T08:42:42;15.20;72.36
65707;SHT31;52423;43.512;5.220;2023-03-23T08:45:10;15.15;72.16
65707;SHT31;52423;43.512;5.220;2023-03-23T08:47:37;15.12;72.55
65707;SHT31;52423;43.512;5.220;2023-03-23T08:50:04;14.98;72.71
65707;SHT31;52423;43.512;5.220;2023-03-23T08:52:30;14.85;72.90
65707;SHT31;52423;43.512;5.220;2023-03-23T08:54:55;14.88;73.14
65707;SHT31;52423;43.512;5.220;2023-03-23T08:57:22;14.85;73.55
65707;SHT31;52423;43.512;5.220;2023-03-23T08:59:48;14.90;73.65
65707;SHT31;52423;43.512;5.220;2023-03-23T09:02:13;14.90;74.41
65707;SHT31;52423;43.512;5.220;2023-03-23T09:04:40;14.87;75.57
65707;SHT31;52423;43.512;5.220;2023-03-23T09:07:09;14.84;75.06
65707;SHT31;52423;43.512;5.220;2023-03-23T09:09:36;14.83;75.94
65707;SHT31;52423;43.512;5.220;2023-03-23T09:12:02;14.76;76.22
65707;SHT31;52423;43.512;5.220;2023-03-23T09:14:28;14.76;76.10
65707;SHT31;52423;43.512;5.220;2023-03-23T09:16:53;14.77;76.07
65707;SHT31;52423;43.512;5.220;2023-03-23T09:19:18;14.73;76.45
65707;SHT31;52423;43.512;5.220;2023-03-23T09:21:45;14.70;76.75
65707;SHT31;52423;43.512;5.220;2023-03-23T09:24:10;14.72;76.92
65707;SHT31;52423;43.512;5.220;2023-03-23T09:26:36;14.81;76.44
65707;SHT31;52423;43.512;5.220;2023-03-23T09:29:02;14.85;77.33
65707;SHT31;52423;43.512;5.220;2023-03-23T09:31:28;14.81;76.84
65707;SHT31;52423;43.512;5.220;2023-03-23T09:33:54;14.87;77.01
65707;SHT31;52423;43.512;5.220;2023-03-23T09:36:22;14.97;76.72
65707;SHT31;52423;43.512;5.220;2023-03-23T09:38:48;15.00;76.59
65707;SHT31;52423;43.512;5.220;2023-03-23T09:52:01;15.11;76.45
65707;SHT31;52423;43.512;5.220;2023-03-23T09:54:39;15.01;76.45
65707;SHT31;52423;43.512;5.220;2023-03-23T09:57:28;14.97;76.56
65707;SHT31;52423;43.512;5.220;2023-03-23T10:02:54;14.90;76.62
65707;SHT31;52423;43.512;5.220;2023-03-23T10:05:34;14.97;76.30
65707;SHT31;52423;43.512;5.220;2023-03-23T10:08:03;14.91;76.50
65707;SHT31;52423;43.512;5.220;2023-03-23T10:13:21;14.91;77.05
65707;SHT31;52423;43.512;5.220;2023-03-23T10:15:51;14.94;77.25
65707;SHT31;52423;43.512;5.220;2023-03-23T10:18:24;15.05;77.25
65707;SHT31;52423;43.512;5.220;2023-03-23T10:20:59;15.12;76.43
65707;SHT31;52423;43.512;5.220;2023-03-23T10:29:12;15.28;76.28
65707;SHT31;52423;43.512;5.220;2023-03-23T10:31:43;15.44;76.44
65707;SHT31;52423;43.512;5.220;2023-03-23T10:34:19;15.52;75.77
65707;SHT31;52423;43.512;5.220;2023-03-23T10:39:53;15.61;75.19
65707;SHT31;52423;43.512;5.220;2023-03-23T10:44:50;15.76;74.31
65707;SHT31;52423;43.512;5.220;2023-03-23T10:47:16;16.12;73.01
65707;SHT31;52423;43.512;5.220;2023-03-23T10:49:49;16.40;71.68
65707;SHT31;52423;43.512;5.220;2023-03-23T10:52:54;16.44;71.80
65707;SHT31;52423;43.512;5.220;2023-03-23T10:55:22;16.67;72.11
65707;SHT31;52423;43.512;5.220;2023-03-23T10:58:03;16.64;69.65
65707;SHT31;52423;43.512;5.220;2023-03-23T11:00:30;16.65;69.50
65707;SHT31;52423;43.512;5.220;2023-03-23T11:03:05;16.61;70.50
65707;SHT31;52423;43.512;5.220;2023-03-23T11:05:59;16.62;69.49
65707;SHT31;52423;43.512;5.220;2023-03-23T11:08:29;16.64;69.92
65707;SHT31;52423;43.512;5.220;2023-03-23T11:11:09;16.82;68.40
65707;SHT31;52423;43.512;5.220;2023-03-23T11:13:39;16.81;68.59
65707;SHT31;52423;43.512;5.220;2023-03-23T11:16:08;16.54;68.11
65707;SHT31;52423;43.512;5.220;2023-03-23T11:18:41;16.37;69.80
65707;SHT31;52423;43.512;5.220;2023-03-23T11:21:13;16.21;69.66
65707;SHT31;52423;43.512;5.220;2023-03-23T11:23:42;16.30;70.15
65707;SHT31;52423;43.512;5.220;2023-03-23T11:26:15;16.50;69.02
65707;SHT31;52423;43.512;5.220;2023-03-23T11:28:45;16.58;67.93
65707;SHT31;52423;43.512;5.220;2023-03-23T11:31:11;16.99;67.51
65707;SHT31;52423;43.512;5.220;2023-03-23T11:33:49;17.36;66.72
65707;SHT31;52423;43.512;5.220;2023-03-23T11:36:16;17.18;66.47
65707;SHT31;52423;43.512;5.220;2023-03-23T11:38:43;16.98;66.97
65707;SHT31;52423;43.512;5.220;2023-03-23T11:41:11;17.08;67.99
65707;SHT31;52423;43.512;5.220;2023-03-23T11:43:40;17.22;66.93
65707;SHT31;52423;43.512;5.220;2023-03-23T11:46:28;17.16;67.75
65707;SHT31;52423;43.512;5.220;2023-03-23T11:49:01;17.23;67.07
65707;SHT31;52423;43.512;5.220;2023-03-23T11:51:38;17.26;65.64
65707;SHT31;52423;43.512;5.220;2023-03-23T11:56:34;17.39;66.97
65707;SHT31;52423;43.512;5.220;2023-03-23T11:59:00;17.85;65.99
65707;SHT31;52423;43.512;5.220;2023-03-23T12:07:42;18.29;62.17
65707;SHT31;52423;43.512;5.220;2023-03-23T12:15:41;18.34;62.98
65707;SHT31;52423;43.512;5.220;2023-03-23T12:26:25;18.79;61.32
65707;SHT31;52423;43.512;5.220;2023-03-23T12:32:28;18.86;61.56
65707;SHT31;52423;43.512;5.220;2023-03-23T12:43:33;17.87;64.29
65707;SHT31;52423;43.512;5.220;2023-03-23T12:51:48;17.12;68.80
65707;SHT31;52423;43.512;5.220;2023-03-23T12:54:38;16.82;69.53
65707;SHT31;52423;43.512;5.220;2023-03-23T13:02:27;17.42;68.13
65707;SHT31;52423;43.512;5.220;2023-03-23T13:07:43;17.78;66.59
65707;SHT31;52423;43.512;5.220;2023-03-23T13:10:33;18.04;65.76
65707;SHT31;52423;43.512;5.220;2023-03-23T13:13:00;18.32;65.69
65707;SHT31;52423;43.512;5.220;2023-03-23T13:18:13;17.97;66.91
65707;SHT31;52423;43.512;5.220;2023-03-23T13:23:52;17.90;65.80
65707;SHT31;52423;43.512;5.220;2023-03-23T13:26:21;17.43;67.68
65707;SHT31;52423;43.512;5.220;2023-03-23T13:29:01;17.42;68.27
65707;SHT31;52423;43.512;5.220;2023-03-23T13:31:35;17.23;68.79
65707;SHT31;52423;43.512;5.220;2023-03-23T13:34:23;17.02;69.50
65707;SHT31;52423;43.512;5.220;2023-03-23T13:37:04;16.86;69.33
65707;SHT31;52423;43.512;5.220;2023-03-23T13:42:48;16.88;69.59
65707;SHT31;52423;43.512;5.220;2023-03-23T13:47:43;16.61;69.77
65707;SHT31;52423;43.512;5.220;2023-03-23T13:50:24;16.61;70.36
65707;SHT31;52423;43.512;5.220;2023-03-23T13:52:54;16.58;69.28
65707;SHT31;52423;43.512;5.220;2023-03-23T14:03:11;16.44;69.72
65707;SHT31;52423;43.512;5.220;2023-03-23T14:05:43;16.72;68.92
65707;SHT31;52423;43.512;5.220;2023-03-23T14:10:41;17.64;66.92
65707;SHT31;52423;43.512;5.220;2023-03-23T14:13:18;17.80;65.67
65707;SHT31;52423;43.512;5.220;2023-03-23T14:16:03;18.12;64.76
65707;SHT31;52423;43.512;5.220;2023-03-23T14:18:34;18.01;64.97
65707;SHT31;52423;43.512;5.220;2023-03-23T14:21:00;18.16;65.33
65707;SHT31;52423;43.512;5.220;2023-03-23T14:23:26;18.11;63.08
65707;SHT31;52423;43.512;5.220;2023-03-23T14:25:56;18.19;64.90
65707;SHT31;52423;43.512;5.220;2023-03-23T14:28:30;18.28;62.07
65707;SHT31;52423;43.512;5.220;2023-03-23T14:30:58;18.14;62.82
65707;SHT31;52423;43.512;5.220;2023-03-23T14:33:25;18.02;63.26
65707;SHT31;52423;43.512;5.220;2023-03-23T14:35:51;17.66;63.79
65707;SHT31;52423;43.512;5.220;2023-03-23T14:38:22;17.08;66.87
65707;SHT31;52423;43.512;5.220;2023-03-23T14:40:54;17.30;65.84
65707;SHT31;52423;43.512;5.220;2023-03-23T14:43:25;17.66;65.21
65707;SHT31;52423;43.512;5.220;2023-03-23T14:45:53;17.87;65.50
65707;SHT31;52423;43.512;5.220;2023-03-23T14:48:20;17.77;64.10
65707;SHT31;52423;43.512;5.220;2023-03-23T14:50:50;17.81;64.50
65707;SHT31;52423;43.512;5.220;2023-03-23T14:53:33;17.95;64.51
65707;SHT31;52423;43.512;5.220;2023-03-23T14:56:02;17.67;65.07
65707;SHT31;52423;43.512;5.220;2023-03-23T14:58:29;17.57;65.94
65707;SHT31;52423;43.512;5.220;2023-03-23T15:01:06;17.29;66.46
65707;SHT31;52423;43.512;5.220;2023-03-23T15:03:42;17.27;67.00
65707;SHT31;52423;43.512;5.220;2023-03-23T15:06:18;17.36;66.31
65707;SHT31;52423;43.512;5.220;2023-03-23T15:08:47;17.40;67.78
65707;SHT31;52423;43.512;5.220;2023-03-23T15:11:31;17.70;66.78
65707;SHT31;52423;43.512;5.220;2023-03-23T15:14:30;17.73;66.03
65707;SHT31;52423;43.512;5.220;2023-03-23T15:16:58;17.53;66.46
65707;SHT31;52423;43.512;5.220;2023-03-23T15:19:36;17.51;67.39
65707;SHT31;52423;43.512;5.220;2023-03-23T15:24:52;17.44;64.09
65707;SHT31;52423;43.512;5.220;2023-03-23T15:27:39;17.32;64.90
65707;SHT31;52423;43.512;5.220;2023-03-23T15:32:42;17.20;66.00
65707;SHT31;52423;43.512;5.220;2023-03-23T15:35:15;17.30;66.03
65707;SHT31;52423;43.512;5.220;2023-03-23T15:37:46;17.29;66.41
65707;SHT31;52423;43.512;5.220;2023-03-23T15:40:20;17.30;67.22
65707;SHT31;52423;43.512;5.220;2023-03-23T15:42:47;17.11;65.54
65707;SHT31;52423;43.512;5.220;2023-03-23T15:52:41;17.06;66.03
65707;SHT31;52423;43.512;5.220;2023-03-23T15:55:20;17.05;66.51
65707;SHT31;52423;43.512;5.220;2023-03-23T15:57:46;17.19;66.58
65707;SHT31;52423;43.512;5.220;2023-03-23T16:00:12;17.06;65.65
65707;SHT31;52423;43.512;5.220;2023-03-23T16:02:38;17.15;65.94
65707;SHT31;52423;43.512;5.220;2023-03-23T16:05:04;17.13;66.23
65707;SHT31;52423;43.512;5.220;2023-03-23T16:07:29;17.05;66.28
65707;SHT31;52423;43.512;5.220;2023-03-23T16:09:55;17.08;67.27
65707;SHT31;52423;43.512;5.220;2023-03-23T16:12:20;17.11;67.09
65707;SHT31;52423;43.512;5.220;2023-03-23T16:14:46;17.03;67.46
65707;SHT31;52423;43.512;5.220;2023-03-23T16:17:14;17.06;66.72
65707;SHT31;52423;43.512;5.220;2023-03-23T16:19:40;17.12;67.50
65707;SHT31;52423;43.512;5.220;2023-03-23T16:22:07;17.01;66.42
65707;SHT31;52423;43.512;5.220;2023-03-23T16:24:33;16.79;66.94
65707;SHT31;52423;43.512;5.220;2023-03-23T16:26:58;16.65;67.68
65707;SHT31;52423;43.512;5.220;2023-03-23T16:29:24;16.67;67.98
65707;SHT31;52423;43.512;5.220;2023-03-23T16:31:49;16.57;68.91
65707;SHT31;52423;43.512;5.220;2023-03-23T16:34:14;16.57;68.01
65707;SHT31;52423;43.512;5.220;2023-03-23T16:36:40;16.51;68.16
65707;SHT31;52423;43.512;5.220;2023-03-23T16:39:05;16.45;68.29
65707;SHT31;52423;43.512;5.220;2023-03-23T16:41:31;16.37;68.17
65707;SHT31;52423;43.512;5.220;2023-03-23T16:43:56;16.28;68.75
65707;SHT31;52423;43.512;5.220;2023-03-23T16:46:22;16.24;68.66
65707;SHT31;52423;43.512;5.220;2023-03-23T16:48:47;16.20;68.93
65707;SHT31;52423;43.512;5.220;2023-03-23T16:51:12;16.23;69.12
65707;SHT31;52423;43.512;5.220;2023-03-23T16:53:38;16.13;70.46
65707;SHT31;52423;43.512;5.220;2023-03-23T16:56:03;16.07;72.05
65707;SHT31;52423;43.512;5.220;2023-03-23T16:58:29;15.86;73.63
65707;SHT31;52423;43.512;5.220;2023-03-23T17:00:55;15.82;74.18
65707;SHT31;52423;43.512;5.220;2023-03-23T17:03:20;15.85;74.52
65707;SHT31;52423;43.512;5.220;2023-03-23T17:05:48;15.78;74.74
65707;SHT31;52423;43.512;5.220;2023-03-23T17:08:14;15.67;75.19
65707;SHT31;52423;43.512;5.220;2023-03-23T17:10:40;15.61;75.40
65707;SHT31;52423;43.512;5.220;2023-03-23T17:13:06;15.53;75.65
65707;SHT31;52423;43.512;5.220;2023-03-23T17:15:32;15.48;76.10
65707;SHT31;52423;43.512;5.220;2023-03-23T17:18:00;15.45;76.39
65707;SHT31;52423;43.512;5.220;2023-03-23T17:20:26;15.41;76.62
65707;SHT31;52423;43.512;5.220;2023-03-23T17:22:51;15.35;76.43
65707;SHT31;52423;43.512;5.220;2023-03-23T17:25:17;15.25;76.55
65707;SHT31;52423;43.512;5.220;2023-03-23T17:27:42;15.25;76.42
65707;SHT31;52423;43.512;5.220;2023-03-23T17:30:08;15.22;76.36
65707;SHT31;52423;43.512;5.220;2023-03-23T17:32:34;15.15;76.36
65707;SHT31;52423;43.512;5.220;2023-03-23T17:35:01;15.11;76.30
65707;SHT31;52423;43.512;5.220;2023-03-23T17:37:26;15.08;76.00
65707;SHT31;52423;43.512;5.220;2023-03-23T17:39:51;15.04;76.18
65707;SHT31;52423;43.512;5.220;2023-03-23T17:42:17;15.10;76.34
65707;SHT31;52423;43.512;5.220;2023-03-23T17:44:43;15.05;76.13
65707;SHT31;52423;43.512;5.220;2023-03-23T17:47:09;15.00;76.06
65707;SHT31;52423;43.512;5.220;2023-03-23T17:49:35;15.01;75.60